Garfield, KY

1:33 PM CST on January 29, 2015 (GMT -0600)
Wandering Meadows | Change Station
CLOSE
Current Station
Personal Weather Station
Location: Vine Grove, KY
Elevation: 719 ft
Nearby Weather Stations

Elev 719 ft 37.81 °N, 86.03 °W | Updated 1 minute ago

Overcast
Overcast
44.6 °F
Feels Like 39 °F
N
10.9
Wind Variable Wind from ESE

Today
High -- | Low -- °F
--% Chance of Precip.
Yesterday
High -- | Low -- °F
Precip. -- in
6:51 AM 5:05 PM
Waxing Gibbous, 76% visible
Pressure 30.00 in
Visibility 10.0 miles
Clouds Overcast 2600 ft
Windchill 39 °F
Dew Point 37 °F
Humidity 74%
Rainfall 0.00 in
Snow Depth Not available.
UV 1 out of 12
Pollen .30 out of 12
Air Quality Not available.
Flu Activity Not available.
METAR KFTK 291858Z AUTO 28013G23KT 10SM OVC026 08/02 A2998 RMK AO2 PK WND 27028/18 SLP158 T00750016

More Conditions Fewer Conditions

Pressure 30.00 in
Visibility 10.0 miles
Clouds Overcast 2600 ft
Windchill 39 °F
Dew Point 37 °F
Humidity 74%
Rainfall 0.00 in
Snow Depth Not available.
UV 1 out of 12
Pollen .30 out of 12
Air Quality Not available.
Flu Activity Not available.
METAR KFTK 291858Z AUTO 28013G23KT 10SM OVC026 08/02 A2998 RMK AO2 PK WND 27028/18 SLP158 T00750016

More Conditions Fewer Conditions

10-Day Weather Forecast

Almanac

Astronomy

Jan. 29, 2015 Rise Set
Actual Time
Civil Twilight
Nautical Twilight
Astronomical Twilight
Moon
Length of Visible Light
Length of Day
Tomorrow will be .
, % of the Moon is Illuminated

Today's Extremes

State Highs State Lows

Community

WunderPhotos

Upload Photos

1,791,567 photos uploaded!

WunderBlogs® & News

Nearby

Air Quality

  Air Quality AQ Index Pollutant
Not available.

Snow Depth

Station Depth Elevation

Earthquake Activity

City Distance Mag. Time & Date
Minimum magnitude displayed is 2.5.

Coastal Water Temperatures

Place Temperature

Nearby Weather Stations